| |
Missouri Department of Transportation

Social Media Facebook Twitter Flickr Instagram YouTube RSS

Current METAR Information for All MoDOT Locations 
AWOS Home - General Info for all Airports
Current AWOS for all Airports - Current METAR for all Airports
Glossary - Disclaimer - Other Links


Automated Weather Observation System
Date: 03-31-2015
 
Location Current METAR Record
HANNIBAL METAR KHAE 311649Z AUTO 32007KT 10SM CLR 21/M02 A3000 RMK AO2
HARRISONVILLE  No current data available
LEBANON METAR KLBO 311645Z AUTO 01004KT 10SM CLR 20/12 A3001 RMK AO2
MALDEN  No current data available
MARSHALL METAR KMHL 311653Z AUTO 07006KT 10SM CLR 22/03 A3003 RMK AO2
MARYVILLE  No current data available
MEXICO METAR KMYJ 311659Z AUTO 03006KT 10SM CLR 21/05 A3001 RMK AO2
MOBERLY  No current data available
NEVADA METAR KNVD 311723Z AUTO 02006KT 10SM CLR 20/09 A3002 RMK AO2
PIEDMONT  No current data available
SIKESTON  No current data available
SULLIVAN METAR KUUV 311651Z AUTO 35006KT 10SM CLR 21/M01 A3003 RMK AO2
WARSAW  No current data available
About Us
How Do I...
Contact Us
Missouri Department of Transportation
Central Office
105 W. Capitol Avenue
Jefferson City, MO 65102
1-888-ASK-MODOT (275-6636)
1-866-831-6277 (Motor Carrier Services)
Drivers License Offices
horz_bar
| | |
Missouri State Government
© 2013 Missouri Department of Transportation. All Rights Reserved.   Privacy Policy.
 
 
 
 
RSS FeedYoutubeBlogFlickrTwitter Facebook